createdAt,value
2022-09-29T00:02:16.279Z,8.48
2022-09-29T00:07:18.066Z,8.10
2022-09-29T00:12:19.907Z,8.60
2022-09-29T00:17:21.676Z,8.02
2022-09-29T00:22:23.452Z,7.43
2022-09-29T00:27:25.352Z,7.68
2022-09-29T00:32:27.090Z,8.25
2022-09-29T00:37:28.900Z,8.60
2022-09-29T00:42:32.725Z,8.07
2022-09-29T00:47:37.551Z,8.45
2022-09-29T00:52:46.806Z,8.57
2022-09-29T00:58:09.513Z,10.27
2022-09-29T01:03:15.723Z,10.60
2022-09-29T01:08:35.543Z,9.73
2022-09-29T01:13:38.358Z,8.65
2022-09-29T01:18:41.203Z,8.18
2022-09-29T01:24:20.085Z,8.75
2022-09-29T01:29:31.077Z,8.50
2022-09-29T01:34:52.713Z,9.30
2022-09-29T01:40:10.976Z,8.50
2022-09-29T01:45:21.596Z,9.18
2022-09-29T01:50:48.771Z,8.55
2022-09-29T01:55:56.090Z,8.55
2022-09-29T02:01:05.207Z,8.98
2022-09-29T02:06:18.122Z,8.90
2022-09-29T02:11:20.468Z,8.30
2022-09-29T02:16:27.797Z,9.23
2022-09-29T02:21:29.607Z,8.50
2022-09-29T02:26:34.644Z,8.30
2022-09-29T02:31:38.666Z,9.15
2022-09-29T02:36:43.353Z,8.68
2022-09-29T02:42:06.954Z,8.20
2022-09-29T02:47:36.007Z,7.90
2022-09-29T02:53:01.020Z,7.63
2022-09-29T02:58:17.953Z,8.65
2022-09-29T03:03:19.853Z,8.45
2022-09-29T03:08:21.611Z,8.30
2022-09-29T03:13:23.452Z,7.50
2022-09-29T03:18:25.232Z,7.00
2022-09-29T03:23:27.069Z,7.82
2022-09-29T03:28:28.826Z,6.75
2022-09-29T03:33:30.550Z,7.75
2022-09-29T03:38:33.369Z,6.93
2022-09-29T03:43:35.107Z,8.00
2022-09-29T03:48:36.949Z,7.60
2022-09-29T03:53:38.736Z,7.82
2022-09-29T03:58:40.470Z,8.18
2022-09-29T04:03:42.211Z,7.05
2022-09-29T04:08:43.990Z,7.35
2022-09-29T04:13:45.755Z,6.75
2022-09-29T04:18:47.486Z,7.60
2022-09-29T04:23:51.236Z,8.13
2022-09-29T04:28:53.090Z,7.70
2022-09-29T04:33:54.833Z,7.72
2022-09-29T04:38:56.570Z,7.22
2022-09-29T04:43:58.294Z,7.00
2022-09-29T04:49:00.165Z,7.40
2022-09-29T04:54:01.955Z,7.47
2022-09-29T04:59:03.798Z,7.83
2022-09-29T05:04:05.771Z,6.82
2022-09-29T05:09:07.824Z,8.20
2022-09-29T05:14:11.125Z,8.98
2022-09-29T05:19:13.000Z,8.02
2022-09-29T05:24:14.799Z,9.25
2022-09-29T05:29:17.196Z,9.73
2022-09-29T05:34:18.979Z,9.07
2022-09-29T05:39:21.164Z,9.85
2022-09-29T05:44:23.141Z,10.85
2022-09-29T05:49:24.874Z,11.80
2022-09-29T05:54:29.489Z,12.20
2022-09-29T05:59:31.369Z,13.05
2022-09-29T06:04:36.380Z,13.70
2022-09-29T06:09:41.734Z,11.88
2022-09-29T06:14:43.494Z,12.55
2022-09-29T06:19:45.229Z,11.43
2022-09-29T06:24:47.008Z,10.98
2022-09-29T06:29:49.102Z,13.60
2022-09-29T06:35:09.691Z,15.55
2022-09-29T06:40:12.085Z,20.10
2022-09-29T06:45:13.958Z,21.40
2022-09-29T06:50:23.911Z,21.20
2022-09-29T06:55:25.810Z,19.02
2022-09-29T07:00:28.151Z,17.85
2022-09-29T07:05:29.943Z,18.33
2022-09-29T07:10:31.680Z,16.00
2022-09-29T07:15:33.679Z,17.67
2022-09-29T07:20:35.907Z,20.35
2022-09-29T07:25:51.582Z,20.02
2022-09-29T07:31:23.594Z,15.52
2022-09-29T07:36:25.446Z,13.95
2022-09-29T07:41:28.309Z,14.05
2022-09-29T07:46:30.142Z,14.80
2022-09-29T07:51:32.515Z,14.05
2022-09-29T07:56:35.455Z,10.25
2022-09-29T08:01:37.242Z,8.98
2022-09-29T08:06:40.870Z,7.97
2022-09-29T08:11:43.690Z,7.45
2022-09-29T08:16:45.593Z,6.90
2022-09-29T08:21:49.924Z,6.63
2022-09-29T08:26:51.785Z,6.35
2022-09-29T08:31:56.877Z,7.00
2022-09-29T08:36:58.700Z,6.95
2022-09-29T08:42:06.064Z,7.35
2022-09-29T08:47:18.533Z,7.60
2022-09-29T08:52:26.411Z,7.45
2022-09-29T08:57:28.336Z,7.43
2022-09-29T09:03:01.312Z,7.47
2022-09-29T09:08:42.331Z,8.13
2022-09-29T09:14:04.369Z,8.40
2022-09-29T09:19:33.592Z,8.23
2022-09-29T09:24:47.191Z,8.85
2022-09-29T09:29:53.751Z,8.38
2022-09-29T09:35:13.338Z,9.25
2022-09-29T09:40:21.463Z,8.60
2022-09-29T09:45:31.135Z,9.95
2022-09-29T09:50:40.011Z,9.70
2022-09-29T09:55:42.564Z,9.57
2022-09-29T10:00:53.894Z,9.02
2022-09-29T10:05:56.462Z,9.93
2022-09-29T10:10:59.940Z,10.23
2022-09-29T10:16:12.071Z,10.48
2022-09-29T10:21:40.702Z,11.32
2022-09-29T10:26:45.004Z,11.13
2022-09-29T10:32:01.756Z,11.75
2022-09-29T10:37:18.909Z,10.70
2022-09-29T10:42:33.437Z,10.63
2022-09-29T10:47:35.207Z,10.77
2022-09-29T10:52:37.678Z,11.57
2022-09-29T10:57:41.301Z,11.38
2022-09-29T11:02:44.041Z,11.93
2022-09-29T11:07:48.952Z,11.43
2022-09-29T11:12:50.987Z,11.90
2022-09-29T11:17:53.591Z,12.35
2022-09-29T11:23:06.446Z,12.85
2022-09-29T11:28:31.525Z,11.23
2022-09-29T11:34:06.200Z,12.15
2022-09-29T11:39:35.907Z,12.88
2022-09-29T11:44:43.669Z,12.38
2022-09-29T11:50:02.886Z,12.63
2022-09-29T11:55:08.107Z,12.73
2022-09-29T12:00:14.252Z,11.77
2022-09-29T12:05:23.330Z,12.52
2022-09-29T12:10:36.225Z,13.05
2022-09-29T12:15:52.249Z,12.38
2022-09-29T12:20:58.741Z,13.30
2022-09-29T12:26:25.238Z,12.88
2022-09-29T12:31:41.983Z,12.43
2022-09-29T12:37:06.299Z,12.57
2022-09-29T12:42:11.430Z,12.55
2022-09-29T12:47:16.239Z,12.23
2022-09-29T12:52:25.349Z,12.50
2022-09-29T12:57:33.471Z,12.15
2022-09-29T13:02:57.019Z,12.18
2022-09-29T13:08:40.402Z,12.70
2022-09-29T13:14:06.519Z,12.63
2022-09-29T13:19:56.788Z,13.38
2022-09-29T13:25:19.262Z,12.95
2022-09-29T13:30:31.410Z,13.27
2022-09-29T13:35:40.229Z,13.60
2022-09-29T13:41:34.591Z,12.18
2022-09-29T13:46:39.818Z,12.45
2022-09-29T13:51:44.506Z,11.57
2022-09-29T13:56:50.686Z,12.25
2022-09-29T14:01:53.489Z,12.43
2022-09-29T14:06:58.950Z,12.90
2022-09-29T14:12:04.889Z,12.93
2022-09-29T14:17:28.644Z,13.80
2022-09-29T14:22:30.389Z,11.90
2022-09-29T14:27:32.187Z,12.25
2022-09-29T14:32:42.997Z,12.95
2022-09-29T14:37:48.570Z,12.25
2022-09-29T14:43:05.990Z,11.65
2022-09-29T14:48:57.235Z,12.60
2022-09-29T14:54:17.185Z,12.38
2022-09-29T14:59:57.377Z,12.32
2022-09-29T15:04:59.553Z,11.63
2022-09-29T15:10:02.515Z,12.57
2022-09-29T15:15:04.607Z,11.57
2022-09-29T15:20:41.767Z,10.77
2022-09-29T15:25:45.128Z,10.40
2022-09-29T15:30:50.804Z,11.43
2022-09-29T15:35:57.720Z,11.20
2022-09-29T15:41:03.876Z,10.50
2022-09-29T15:46:17.059Z,10.05
2022-09-29T15:51:18.958Z,9.40
2022-09-29T15:56:20.734Z,9.00
2022-09-29T16:01:22.809Z,8.52
2022-09-29T16:06:33.860Z,10.50
2022-09-29T16:11:39.284Z,9.10
2022-09-29T16:16:44.482Z,8.98
2022-09-29T16:21:52.276Z,8.55
2022-09-29T16:26:57.350Z,10.00
2022-09-29T16:32:20.398Z,9.07
2022-09-29T16:37:22.300Z,33.75
2022-09-29T16:42:27.062Z,58.10
2022-09-29T16:47:32.511Z,33.28
2022-09-29T16:52:51.723Z,21.85
2022-09-29T16:58:05.020Z,13.48
2022-09-29T17:03:06.947Z,10.57
2022-09-29T17:08:15.858Z,9.98
2022-09-29T17:13:18.881Z,8.68
2022-09-29T17:18:22.123Z,7.32
2022-09-29T17:23:24.219Z,8.02
2022-09-29T17:28:26.051Z,7.07
2022-09-29T17:33:27.777Z,6.38
2022-09-29T17:38:31.102Z,5.68
2022-09-29T17:43:33.804Z,6.65
2022-09-29T17:48:35.993Z,7.10
2022-09-29T17:53:37.881Z,6.55
2022-09-29T17:58:39.670Z,6.45
2022-09-29T18:03:42.370Z,6.72
2022-09-29T18:08:44.148Z,6.13
2022-09-29T18:13:46.186Z,6.70
2022-09-29T18:18:48.554Z,7.43
2022-09-29T18:23:50.446Z,7.00
2022-09-29T18:28:54.948Z,6.85
2022-09-29T18:33:56.765Z,8.88
2022-09-29T18:38:58.496Z,7.80
2022-09-29T18:44:00.671Z,9.25
2022-09-29T18:49:03.918Z,11.10
2022-09-29T18:54:07.570Z,10.57
2022-09-29T18:59:12.231Z,10.85
2022-09-29T19:04:13.981Z,11.73
2022-09-29T19:09:15.883Z,13.48
2022-09-29T19:14:17.754Z,13.13
2022-09-29T19:19:20.827Z,12.27
2022-09-29T19:24:24.283Z,11.13
2022-09-29T19:29:26.104Z,11.20
2022-09-29T19:34:30.806Z,13.07
2022-09-29T19:39:32.699Z,11.05
2022-09-29T19:44:39.425Z,11.70
2022-09-29T19:49:41.147Z,12.38
2022-09-29T19:54:42.960Z,10.80
2022-09-29T19:59:44.802Z,10.63
2022-09-29T20:04:46.679Z,8.80
2022-09-29T20:09:48.995Z,9.10
2022-09-29T20:14:51.254Z,8.90
2022-09-29T20:19:53.206Z,9.23
2022-09-29T20:24:56.134Z,9.82
2022-09-29T20:29:57.943Z,7.43
2022-09-29T20:35:02.399Z,8.57
2022-09-29T20:40:04.583Z,7.70
2022-09-29T20:45:07.923Z,8.10
2022-09-29T20:50:10.261Z,7.50
2022-09-29T20:55:12.084Z,8.43
2022-09-29T21:00:14.399Z,7.97
2022-09-29T21:05:16.266Z,8.85
2022-09-29T21:10:18.630Z,7.30
2022-09-29T21:15:20.387Z,7.50
2022-09-29T21:20:22.166Z,7.72
2022-09-29T21:25:24.087Z,8.27
2022-09-29T21:30:25.843Z,7.97
2022-09-29T21:35:27.602Z,7.60
2022-09-29T21:40:29.320Z,8.23
2022-09-29T21:45:31.036Z,8.52
2022-09-29T21:50:32.798Z,7.60
2022-09-29T21:55:34.671Z,7.43
2022-09-29T22:00:42.655Z,8.23
2022-09-29T22:05:44.872Z,7.80
2022-09-29T22:10:52.136Z,8.02
2022-09-29T22:16:03.668Z,8.55
2022-09-29T22:21:07.804Z,8.48
2022-09-29T22:26:12.481Z,8.50
2022-09-29T22:31:15.459Z,8.05
2022-09-29T22:36:17.272Z,8.85
2022-09-29T22:41:24.247Z,8.20
2022-09-29T22:46:29.331Z,7.93
2022-09-29T22:51:31.263Z,8.27
2022-09-29T22:56:44.494Z,8.25
2022-09-29T23:01:47.422Z,8.23
2022-09-29T23:06:49.590Z,8.43
2022-09-29T23:11:54.121Z,8.50
2022-09-29T23:16:55.865Z,8.75
2022-09-29T23:21:57.590Z,8.13
2022-09-29T23:27:00.565Z,8.32
2022-09-29T23:32:02.371Z,8.20
2022-09-29T23:37:04.496Z,9.07
2022-09-29T23:42:09.715Z,9.15
2022-09-29T23:47:13.510Z,8.95
2022-09-29T23:52:15.277Z,10.00
2022-09-29T23:57:16.999Z,9.70
